createdAt,value
2023-04-05T00:02:14.114Z,6.30
2023-04-05T00:04:50.294Z,7.23
2023-04-05T00:07:17.477Z,6.77
2023-04-05T00:09:44.010Z,5.63
2023-04-05T00:12:11.030Z,6.47
2023-04-05T00:14:37.568Z,6.57
2023-04-05T00:17:04.259Z,6.80
2023-04-05T00:19:33.930Z,7.60
2023-04-05T00:22:00.910Z,7.23
2023-04-05T00:24:29.394Z,7.07
2023-04-05T00:26:56.729Z,6.37
2023-04-05T00:29:23.379Z,6.53
2023-04-05T00:31:50.141Z,7.50
2023-04-05T00:34:16.673Z,6.77
2023-04-05T00:36:43.134Z,7.63
2023-04-05T00:39:09.642Z,8.07
2023-04-05T00:41:36.752Z,7.10
2023-04-05T00:44:04.087Z,7.67
2023-04-05T00:46:34.713Z,7.57
2023-04-05T00:49:01.224Z,8.27
2023-04-05T00:51:28.266Z,8.00
2023-04-05T00:53:55.045Z,7.30
2023-04-05T00:56:22.639Z,6.40
2023-04-05T00:58:51.995Z,7.20
2023-04-05T01:01:20.763Z,8.03
2023-04-05T01:03:53.901Z,7.70
2023-04-05T01:06:46.774Z,7.60
2023-04-05T01:09:36.904Z,7.70
2023-04-05T01:12:09.873Z,6.33
2023-04-05T01:14:50.684Z,7.20
2023-04-05T01:17:22.203Z,7.00
2023-04-05T01:20:03.618Z,7.83
2023-04-05T01:22:42.854Z,7.97
2023-04-05T01:25:34.766Z,6.50
2023-04-05T01:28:23.503Z,7.30
2023-04-05T01:30:58.330Z,7.80
2023-04-05T01:33:39.866Z,7.60
2023-04-05T01:36:15.401Z,7.40
2023-04-05T01:38:46.749Z,7.50
2023-04-05T01:41:14.155Z,7.17
2023-04-05T01:43:40.743Z,6.47
2023-04-05T01:46:07.462Z,6.97
2023-04-05T01:48:33.981Z,7.90
2023-04-05T01:51:00.746Z,6.90
2023-04-05T01:53:27.263Z,7.63
2023-04-05T01:55:53.711Z,7.10
2023-04-05T01:58:20.404Z,7.77
2023-04-05T02:00:47.166Z,7.17
2023-04-05T02:03:13.866Z,8.10
2023-04-05T02:05:40.554Z,7.23
2023-04-05T02:08:07.001Z,7.87
2023-04-05T02:10:33.449Z,7.40
2023-04-05T02:12:59.950Z,6.67
2023-04-05T02:15:26.404Z,6.60
2023-04-05T02:17:54.105Z,7.37
2023-04-05T02:20:21.644Z,7.87
2023-04-05T02:22:48.284Z,6.80
2023-04-05T02:25:15.084Z,7.00
2023-04-05T02:27:41.553Z,6.90
2023-04-05T02:30:08.683Z,7.70
2023-04-05T02:32:35.295Z,7.83
2023-04-05T02:35:02.684Z,7.70
2023-04-05T02:37:29.463Z,6.53
2023-04-05T02:39:56.022Z,7.70
2023-04-05T02:42:22.620Z,7.37
2023-04-05T02:44:51.004Z,7.27
2023-04-05T02:47:21.541Z,5.50
2023-04-05T02:49:53.726Z,6.50
2023-04-05T02:52:21.361Z,6.80
2023-04-05T02:54:49.316Z,6.37
2023-04-05T02:57:20.363Z,7.10
2023-04-05T02:59:54.729Z,6.13
2023-04-05T03:02:21.868Z,6.53
2023-04-05T03:04:53.511Z,5.70
2023-04-05T03:07:21.840Z,7.00
2023-04-05T03:09:48.917Z,6.83
2023-04-05T03:12:16.329Z,7.03
2023-04-05T03:14:43.535Z,7.30
2023-04-05T03:17:15.380Z,7.27
2023-04-05T03:19:46.110Z,6.50
2023-04-05T03:22:20.184Z,6.50
2023-04-05T03:24:47.471Z,7.47
2023-04-05T03:27:16.364Z,6.60
2023-04-05T03:29:57.973Z,6.10
2023-04-05T03:32:24.813Z,7.00
2023-04-05T03:34:59.499Z,7.40
2023-04-05T03:37:26.553Z,8.20
2023-04-05T03:40:02.604Z,7.30
2023-04-05T03:42:29.782Z,6.57
2023-04-05T03:44:56.296Z,6.07
2023-04-05T03:47:23.093Z,6.40
2023-04-05T03:49:51.400Z,7.10
2023-04-05T03:52:17.845Z,7.07
2023-04-05T03:54:45.718Z,6.80
2023-04-05T03:57:20.302Z,6.50
2023-04-05T03:59:49.337Z,7.10
2023-04-05T04:02:15.961Z,6.67
2023-04-05T04:04:42.527Z,7.90
2023-04-05T04:07:09.596Z,7.30
2023-04-05T04:09:36.084Z,6.60
2023-04-05T04:12:08.401Z,7.47
2023-04-05T04:14:39.231Z,6.10
2023-04-05T04:17:34.515Z,7.27
2023-04-05T04:20:19.797Z,7.30
2023-04-05T04:27:30.411Z,6.53
2023-04-05T04:30:29.263Z,7.03
2023-04-05T04:33:34.549Z,6.47
2023-04-05T04:36:13.776Z,7.60
2023-04-05T04:38:53.400Z,7.17
2023-04-05T04:41:47.212Z,6.87
2023-04-05T04:44:36.398Z,6.40
2023-04-05T04:47:42.147Z,8.00
2023-04-05T04:50:28.933Z,7.17
2023-04-05T04:52:55.452Z,7.00
2023-04-05T04:55:25.309Z,6.70
2023-04-05T04:57:52.827Z,7.07
2023-04-05T05:00:20.663Z,8.13
2023-04-05T05:02:47.753Z,8.43
2023-04-05T05:05:16.138Z,8.53
2023-04-05T05:07:42.803Z,8.47
2023-04-05T05:10:16.184Z,8.27
2023-04-05T05:12:43.569Z,8.27
2023-04-05T05:15:12.661Z,8.50
2023-04-05T05:17:39.651Z,7.33
2023-04-05T05:20:11.233Z,8.50
2023-04-05T05:22:40.513Z,6.50
2023-04-05T05:25:08.682Z,7.60
2023-04-05T05:27:35.403Z,8.20
2023-04-05T05:30:02.190Z,6.87
2023-04-05T05:32:28.912Z,9.23
2023-04-05T05:34:55.444Z,7.90
2023-04-05T05:37:31.610Z,7.00
2023-04-05T05:39:58.157Z,7.80
2023-04-05T05:42:24.771Z,6.17
2023-04-05T05:44:51.270Z,7.03
2023-04-05T05:47:17.727Z,6.30
2023-04-05T05:49:44.323Z,7.93
2023-04-05T05:52:11.024Z,7.47
2023-04-05T05:54:37.514Z,6.87
2023-04-05T05:57:04.528Z,7.30
2023-04-05T05:59:31.218Z,6.70
2023-04-05T06:01:57.882Z,6.47
2023-04-05T06:04:24.742Z,8.10
2023-04-05T06:06:51.614Z,5.20
2023-04-05T06:09:18.184Z,5.80
2023-04-05T06:11:55.723Z,4.40
2023-04-05T06:14:23.992Z,3.90
2023-04-05T06:16:50.529Z,4.07
2023-04-05T06:19:17.097Z,3.30
2023-04-05T06:21:43.676Z,4.23
2023-04-05T06:24:10.351Z,3.60
2023-04-05T06:26:36.843Z,4.87
2023-04-05T06:29:03.376Z,3.63
2023-04-05T06:31:35.636Z,3.50
2023-04-05T06:34:02.572Z,3.90
2023-04-05T06:36:33.943Z,4.43
2023-04-05T06:39:00.971Z,2.93
2023-04-05T06:41:27.836Z,3.60
2023-04-05T06:43:54.860Z,3.33
2023-04-05T06:46:21.540Z,3.13
2023-04-05T06:48:49.844Z,3.47
2023-04-05T06:51:16.718Z,3.70
2023-04-05T06:53:43.230Z,3.70
2023-04-05T06:56:10.082Z,3.33
2023-04-05T06:58:39.086Z,3.23
2023-04-05T07:01:05.932Z,3.43
2023-04-05T07:03:32.781Z,4.10
2023-04-05T07:06:00.594Z,2.93
2023-04-05T07:08:28.403Z,3.90
2023-04-05T07:10:55.328Z,3.50
2023-04-05T07:13:23.178Z,4.27
2023-04-05T07:15:50.019Z,4.00
2023-04-05T07:18:17.211Z,3.10
2023-04-05T07:20:48.100Z,3.30
2023-04-05T07:23:14.802Z,4.20
2023-04-05T07:25:41.537Z,3.50
2023-04-05T07:28:08.056Z,3.10
2023-04-05T07:30:36.317Z,3.93
2023-04-05T07:33:03.238Z,3.73
2023-04-05T07:35:29.872Z,3.10
2023-04-05T07:37:56.456Z,4.00
2023-04-05T07:40:23.054Z,3.30
2023-04-05T07:42:49.530Z,4.17
2023-04-05T07:45:16.246Z,4.50
2023-04-05T07:47:42.771Z,4.30
2023-04-05T07:50:11.719Z,3.27
2023-04-05T07:52:38.274Z,3.40
2023-04-05T07:55:05.226Z,4.27
2023-04-05T07:57:31.784Z,4.30
2023-04-05T07:59:58.394Z,3.37
2023-04-05T08:02:24.889Z,3.20
2023-04-05T08:04:51.573Z,3.43
2023-04-05T08:07:18.198Z,3.07
2023-04-05T08:09:44.746Z,3.07
2023-04-05T08:12:11.669Z,3.17
2023-04-05T08:14:38.271Z,3.10
2023-04-05T08:17:04.776Z,3.43
2023-04-05T08:19:31.421Z,3.60
2023-04-05T08:21:58.009Z,3.60
2023-04-05T08:24:24.666Z,3.20
2023-04-05T08:26:51.486Z,4.80
2023-04-05T08:29:17.979Z,4.00
2023-04-05T08:31:44.544Z,3.57
2023-04-05T08:34:11.190Z,3.10
2023-04-05T08:36:37.701Z,2.90
2023-04-05T08:39:04.216Z,3.10
2023-04-05T08:41:42.093Z,3.70
2023-04-05T08:44:10.397Z,4.70
2023-04-05T08:46:37.647Z,4.67
2023-04-05T08:49:08.551Z,3.47
2023-04-05T08:51:39.341Z,4.10
2023-04-05T08:54:06.050Z,3.77
2023-04-05T08:56:34.178Z,4.30
2023-04-05T08:59:07.206Z,3.70
2023-04-05T09:01:37.401Z,3.83
2023-04-05T09:04:18.122Z,3.73
2023-04-05T09:06:45.136Z,3.00
2023-04-05T09:09:12.070Z,3.80
2023-04-05T09:11:40.325Z,3.20
2023-04-05T09:14:07.648Z,3.30
2023-04-05T09:16:37.740Z,4.03
2023-04-05T09:19:05.418Z,4.10
2023-04-05T09:22:02.749Z,3.00
2023-04-05T09:24:43.189Z,3.80
2023-04-05T09:27:20.441Z,3.77
2023-04-05T09:29:53.590Z,3.70
2023-04-05T09:32:21.316Z,3.23
2023-04-05T09:34:48.229Z,3.47
2023-04-05T09:37:23.771Z,3.10
2023-04-05T09:39:52.160Z,3.50
2023-04-05T09:42:22.833Z,3.80
2023-04-05T09:45:05.217Z,3.07
2023-04-05T09:47:41.920Z,3.53
2023-04-05T09:50:14.907Z,3.47
2023-04-05T09:52:42.426Z,3.10
2023-04-05T09:55:09.908Z,3.20
2023-04-05T09:57:45.401Z,3.47
2023-04-05T10:00:20.559Z,2.80
2023-04-05T10:02:52.128Z,3.30
2023-04-05T10:05:19.028Z,3.00
2023-04-05T10:07:46.001Z,3.00
2023-04-05T10:10:13.717Z,3.20
2023-04-05T10:12:41.767Z,2.87
2023-04-05T10:15:14.139Z,3.23
2023-04-05T10:17:51.543Z,3.30
2023-04-05T10:20:20.301Z,3.43
2023-04-05T10:23:02.215Z,3.73
2023-04-05T10:25:34.762Z,3.70
2023-04-05T10:28:06.545Z,3.40
2023-04-05T10:30:40.235Z,3.33
2023-04-05T10:33:42.205Z,3.40
2023-04-05T10:36:18.767Z,3.47
2023-04-05T10:38:59.514Z,3.80
2023-04-05T10:41:27.184Z,3.77
2023-04-05T10:43:57.756Z,3.00
2023-04-05T10:46:24.695Z,3.33
2023-04-05T10:49:08.425Z,3.60
2023-04-05T10:51:36.316Z,3.00
2023-04-05T10:54:03.390Z,3.50
2023-04-05T10:56:31.133Z,3.47
2023-04-05T10:58:59.269Z,3.70
2023-04-05T11:01:27.139Z,3.20
2023-04-05T11:03:54.921Z,3.20
2023-04-05T11:06:23.048Z,3.27
2023-04-05T11:08:54.065Z,3.27
2023-04-05T11:11:22.933Z,4.20
2023-04-05T11:13:53.446Z,3.90
2023-04-05T11:16:21.590Z,3.70
2023-04-05T11:18:50.287Z,3.27
2023-04-05T11:21:25.360Z,3.60
2023-04-05T11:24:11.763Z,3.90
2023-04-05T11:26:41.157Z,3.57
2023-04-05T11:29:08.159Z,3.47
2023-04-05T11:31:34.828Z,3.13
2023-04-05T11:34:12.159Z,3.23
2023-04-05T11:36:45.591Z,2.87
2023-04-05T11:39:18.309Z,3.57
2023-04-05T11:42:07.322Z,3.67
2023-04-05T11:44:44.526Z,3.00
2023-04-05T11:47:11.689Z,3.40
2023-04-05T11:49:39.446Z,3.30
2023-04-05T11:52:17.169Z,3.27
2023-04-05T11:54:48.835Z,3.70
2023-04-05T11:57:19.667Z,3.60
2023-04-05T11:59:46.567Z,3.63
2023-04-05T12:02:13.210Z,3.57
2023-04-05T12:04:40.537Z,4.23
2023-04-05T12:07:11.274Z,3.70
2023-04-05T12:09:58.869Z,3.40
2023-04-05T12:12:25.551Z,3.47
2023-04-05T12:14:52.025Z,3.07
2023-04-05T12:17:18.618Z,3.23
2023-04-05T12:19:45.734Z,3.67
2023-04-05T12:22:12.951Z,3.60
2023-04-05T12:24:39.709Z,3.47
2023-04-05T12:27:06.668Z,3.53
2023-04-05T12:29:33.516Z,2.80
2023-04-05T12:32:01.281Z,3.80
2023-04-05T12:34:27.910Z,3.80
2023-04-05T12:36:54.683Z,3.30
2023-04-05T12:39:21.399Z,3.33
2023-04-05T12:42:01.330Z,4.17
2023-04-05T12:44:30.220Z,3.87
2023-04-05T12:47:02.743Z,4.13
2023-04-05T12:49:35.573Z,3.93
2023-04-05T12:52:03.011Z,3.40
2023-04-05T12:54:30.975Z,4.00
2023-04-05T12:56:57.658Z,4.10
2023-04-05T12:59:24.559Z,4.07
2023-04-05T13:01:51.572Z,3.40
2023-04-05T13:04:18.370Z,4.03
2023-04-05T13:06:47.549Z,3.43
2023-04-05T13:09:14.690Z,4.20
2023-04-05T13:11:41.220Z,3.50
2023-04-05T13:14:08.083Z,4.77
2023-04-05T13:16:34.735Z,4.33
2023-04-05T13:19:01.371Z,3.13
2023-04-05T13:21:27.892Z,3.10
2023-04-05T13:23:54.456Z,3.30
2023-04-05T13:26:21.086Z,3.87
2023-04-05T13:28:47.666Z,3.97
2023-04-05T13:31:15.843Z,3.83
2023-04-05T13:33:42.885Z,3.73
2023-04-05T13:36:12.285Z,3.40
2023-04-05T13:38:39.462Z,3.63
2023-04-05T13:41:06.175Z,4.07
2023-04-05T13:43:32.689Z,3.30
2023-04-05T13:45:59.237Z,3.77
2023-04-05T13:48:25.836Z,3.13
2023-04-05T13:50:52.374Z,4.20
2023-04-05T13:53:19.038Z,3.10
2023-04-05T13:55:45.517Z,3.57
2023-04-05T13:58:14.137Z,4.23
2023-04-05T14:00:41.078Z,3.57
2023-04-05T14:03:07.966Z,3.00
2023-04-05T14:05:34.566Z,3.70
2023-04-05T14:08:01.096Z,3.37
2023-04-05T14:10:27.571Z,3.50
2023-04-05T14:12:54.100Z,3.80
2023-04-05T14:15:20.714Z,3.40
2023-04-05T14:17:47.283Z,3.60
2023-04-05T14:20:13.835Z,3.33
2023-04-05T14:22:40.402Z,3.50
2023-04-05T14:25:08.305Z,3.80
2023-04-05T14:27:37.637Z,3.57
2023-04-05T14:30:04.525Z,3.43
2023-04-05T14:32:33.611Z,3.20
2023-04-05T14:35:00.425Z,3.80
2023-04-05T14:37:27.430Z,3.20
2023-04-05T14:39:54.371Z,3.57
2023-04-05T14:42:21.681Z,3.30
2023-04-05T14:44:48.221Z,3.30
2023-04-05T14:47:14.845Z,3.80
2023-04-05T14:49:41.321Z,4.10
2023-04-05T14:52:07.878Z,3.33
2023-04-05T14:54:34.451Z,3.63
2023-04-05T14:57:01.072Z,3.87
2023-04-05T14:59:28.173Z,3.50
2023-04-05T15:01:54.947Z,3.67
2023-04-05T15:04:21.495Z,3.60
2023-04-05T15:06:48.157Z,3.80
2023-04-05T15:09:15.315Z,3.90
2023-04-05T15:11:42.045Z,4.40
2023-04-05T15:14:11.514Z,3.80
2023-04-05T15:16:44.674Z,3.50
2023-04-05T15:19:11.254Z,4.00
2023-04-05T15:21:39.281Z,3.60
2023-04-05T15:24:06.297Z,3.77
2023-04-05T15:26:32.853Z,3.50
2023-04-05T15:28:59.345Z,4.10
2023-04-05T15:31:26.037Z,3.30
2023-04-05T15:33:52.568Z,3.53
2023-04-05T15:36:19.061Z,4.20
2023-04-05T15:38:45.631Z,3.83
2023-04-05T15:41:13.105Z,3.77
2023-04-05T15:43:39.692Z,3.30
2023-04-05T15:46:06.374Z,3.47
2023-04-05T15:48:32.923Z,3.17
2023-04-05T15:50:59.448Z,3.77
2023-04-05T15:53:26.172Z,3.37
2023-04-05T15:55:52.714Z,3.43
2023-04-05T15:58:19.208Z,2.93
2023-04-05T16:00:45.823Z,3.83
2023-04-05T16:03:12.401Z,3.20
2023-04-05T16:05:38.952Z,4.50
2023-04-05T16:08:06.069Z,3.40
2023-04-05T16:10:32.785Z,3.17
2023-04-05T16:12:59.320Z,3.43
2023-04-05T16:15:26.359Z,3.70
2023-04-05T16:17:52.884Z,3.27
2023-04-05T16:20:19.497Z,3.50
2023-04-05T16:22:46.535Z,3.07
2023-04-05T16:25:13.195Z,3.57
2023-04-05T16:27:39.687Z,3.50
2023-04-05T16:30:07.464Z,3.17
2023-04-05T16:32:34.031Z,5.10
2023-04-05T16:35:00.643Z,3.90
2023-04-05T16:37:27.194Z,3.97
2023-04-05T16:39:53.740Z,3.90
2023-04-05T16:42:20.386Z,3.40
2023-04-05T16:44:46.972Z,2.93
2023-04-05T16:47:13.517Z,3.60
2023-04-05T16:49:40.012Z,2.97
2023-04-05T16:52:06.550Z,4.50
2023-04-05T16:54:33.281Z,4.70
2023-04-05T16:56:59.863Z,3.50
2023-04-05T16:59:26.464Z,3.43
2023-04-05T17:01:53.187Z,3.77
2023-04-05T17:04:19.764Z,3.10
2023-04-05T17:06:46.340Z,3.33
2023-04-05T17:09:12.923Z,3.30
2023-04-05T17:11:39.454Z,3.50
2023-04-05T17:14:06.873Z,3.37
2023-04-05T17:16:33.454Z,3.03
2023-04-05T17:19:00.673Z,2.73
2023-04-05T17:21:27.289Z,3.60
2023-04-05T17:23:53.849Z,3.13
2023-04-05T17:26:23.090Z,2.80
2023-04-05T17:28:49.632Z,2.93
2023-04-05T17:31:16.479Z,3.30
2023-04-05T17:33:43.014Z,3.50
2023-04-05T17:36:09.608Z,3.00
2023-04-05T17:38:36.177Z,3.23
2023-04-05T17:41:03.255Z,2.80
2023-04-05T17:43:29.866Z,2.80
2023-04-05T17:45:56.479Z,3.03
2023-04-05T17:48:23.081Z,2.43
2023-04-05T17:50:49.670Z,2.70
2023-04-05T17:53:16.645Z,3.13
2023-04-05T17:55:43.580Z,2.83
2023-04-05T17:58:10.383Z,3.10
2023-04-05T18:00:36.996Z,3.30
2023-04-05T18:03:07.584Z,3.47
2023-04-05T18:05:34.422Z,3.43
2023-04-05T18:08:01.212Z,2.63
2023-04-05T18:10:27.972Z,2.07
2023-04-05T18:12:54.438Z,3.37
2023-04-05T18:15:20.929Z,3.07
2023-04-05T18:17:47.497Z,3.37
2023-04-05T18:20:14.215Z,3.03
2023-04-05T18:22:40.716Z,3.23
2023-04-05T18:25:09.140Z,3.07
2023-04-05T18:27:35.762Z,3.20
2023-04-05T18:30:02.398Z,3.73
2023-04-05T18:32:29.033Z,4.57
2023-04-05T18:34:55.836Z,3.43
2023-04-05T18:37:22.899Z,3.37
2023-04-05T18:39:49.410Z,3.03
2023-04-05T18:42:15.955Z,3.23
2023-04-05T18:44:42.545Z,3.90
2023-04-05T18:47:09.053Z,4.00
2023-04-05T18:49:37.032Z,3.60
2023-04-05T18:52:03.654Z,3.50
2023-04-05T18:54:30.351Z,3.77
2023-04-05T18:56:56.882Z,3.80
2023-04-05T18:59:23.521Z,4.17
2023-04-05T19:01:50.429Z,3.53
2023-04-05T19:04:16.938Z,3.07
2023-04-05T19:06:43.517Z,4.17
2023-04-05T19:09:10.422Z,3.63
2023-04-05T19:11:36.986Z,4.23
2023-04-05T19:14:04.032Z,3.50
2023-04-05T19:16:31.160Z,4.10
2023-04-05T19:18:57.838Z,4.50
2023-04-05T19:21:24.631Z,4.63
2023-04-05T19:23:51.098Z,4.00
2023-04-05T19:26:17.679Z,3.47
2023-04-05T19:28:44.211Z,3.90
2023-04-05T19:31:11.073Z,4.30
2023-04-05T19:33:37.614Z,5.57
2023-04-05T19:36:04.529Z,5.00
2023-04-05T19:38:31.509Z,5.87
2023-04-05T19:40:58.232Z,5.10
2023-04-05T19:43:26.378Z,5.33
2023-04-05T19:45:57.563Z,5.67
2023-04-05T19:48:41.594Z,4.80
2023-04-05T19:51:09.698Z,5.20
2023-04-05T19:53:42.010Z,5.57
2023-04-05T19:56:15.062Z,5.50
2023-04-05T19:58:42.423Z,6.03
2023-04-05T20:01:09.547Z,6.37
2023-04-05T20:03:41.361Z,5.77
2023-04-05T20:06:07.967Z,6.10
2023-04-05T20:08:43.242Z,5.73
2023-04-05T20:11:13.381Z,5.20
2023-04-05T20:13:43.953Z,5.63
2023-04-05T20:16:12.284Z,5.70
2023-04-05T20:18:39.400Z,5.67
2023-04-05T20:21:06.897Z,5.03
2023-04-05T20:23:33.461Z,5.60
2023-04-05T20:26:00.302Z,5.57
2023-04-05T20:28:36.262Z,5.60
2023-04-05T20:31:04.616Z,5.47
2023-04-05T20:33:39.934Z,5.40
2023-04-05T20:36:10.536Z,4.93
2023-04-05T20:38:38.424Z,5.30
2023-04-05T20:41:06.016Z,5.90
2023-04-05T20:43:33.240Z,5.10
2023-04-05T20:46:03.079Z,5.20
2023-04-05T20:48:34.379Z,5.40
2023-04-05T20:51:02.203Z,5.20
2023-04-05T20:53:29.765Z,5.90
2023-04-05T20:55:56.599Z,4.50
2023-04-05T20:58:23.208Z,4.67
2023-04-05T21:00:49.860Z,4.90
2023-04-05T21:03:16.928Z,5.30
2023-04-05T21:05:43.635Z,5.30
2023-04-05T21:08:11.056Z,5.00
2023-04-05T21:10:37.902Z,5.00
2023-04-05T21:13:04.507Z,6.10
2023-04-05T21:15:31.650Z,4.77
2023-04-05T21:18:01.575Z,4.70
2023-04-05T21:20:28.803Z,5.77
2023-04-05T21:22:56.640Z,5.10
2023-04-05T21:25:23.887Z,5.47
2023-04-05T21:27:50.926Z,5.30
2023-04-05T21:30:17.975Z,5.23
2023-04-05T21:32:44.767Z,5.10
2023-04-05T21:35:11.620Z,4.67
2023-04-05T21:37:38.242Z,5.60
2023-04-05T21:40:05.373Z,5.03
2023-04-05T21:42:32.143Z,4.70
2023-04-05T21:44:58.870Z,6.90
2023-04-05T21:47:25.447Z,5.07
2023-04-05T21:49:52.834Z,5.60
2023-04-05T21:52:19.558Z,5.37
2023-04-05T21:54:47.197Z,6.13
2023-04-05T21:57:13.733Z,6.10
2023-04-05T21:59:40.566Z,5.70
2023-04-05T22:02:07.536Z,5.77
2023-04-05T22:04:35.324Z,5.17
2023-04-05T22:07:01.800Z,6.53
2023-04-05T22:09:28.582Z,6.50
2023-04-05T22:11:55.300Z,6.50
2023-04-05T22:14:21.994Z,5.17
2023-04-05T22:16:48.589Z,5.50
2023-04-05T22:19:15.722Z,5.03
2023-04-05T22:21:42.175Z,5.87
2023-04-05T22:24:10.160Z,6.20
2023-04-05T22:26:39.234Z,5.67
2023-04-05T22:29:06.276Z,6.20
2023-04-05T22:31:33.294Z,6.27
2023-04-05T22:34:01.063Z,7.03
2023-04-05T22:36:27.584Z,5.87
2023-04-05T22:38:54.603Z,5.80
2023-04-05T22:41:21.300Z,6.93
2023-04-05T22:43:47.765Z,6.50
2023-04-05T22:46:14.387Z,6.60
2023-04-05T22:48:41.898Z,4.43
2023-04-05T22:51:08.446Z,6.57
2023-04-05T22:53:35.340Z,5.60
2023-04-05T22:56:01.918Z,6.07
2023-04-05T22:58:32.579Z,6.03
2023-04-05T23:00:59.515Z,6.60
2023-04-05T23:03:26.646Z,6.80
2023-04-05T23:05:53.143Z,5.90
2023-04-05T23:08:19.822Z,6.83
2023-04-05T23:10:47.704Z,6.67
2023-04-05T23:13:14.743Z,6.07
2023-04-05T23:15:41.504Z,5.47
2023-04-05T23:18:08.057Z,6.33
2023-04-05T23:20:34.578Z,6.50
2023-04-05T23:23:01.641Z,7.00
2023-04-05T23:25:28.196Z,6.10
2023-04-05T23:27:54.802Z,5.73
2023-04-05T23:30:21.290Z,7.40
2023-04-05T23:32:47.852Z,5.80
2023-04-05T23:35:15.408Z,6.20
2023-04-05T23:37:41.913Z,6.30
2023-04-05T23:40:09.048Z,6.30
2023-04-05T23:42:35.541Z,5.63
2023-04-05T23:45:04.291Z,6.23
2023-04-05T23:47:31.059Z,6.53
2023-04-05T23:49:57.725Z,6.73
2023-04-05T23:52:24.254Z,6.37
2023-04-05T23:54:50.736Z,6.10
2023-04-05T23:57:17.194Z,6.30
2023-04-05T23:59:43.806Z,6.20
